WX2DX-2 Weather Reports


Display with metric or nautical units.
time (UTC)temp
F
wind
direction
speed
MPH
gust
MPH
rain 1hr
in
rain 24hr
in
rain mn
in
humidity
%
barometer
mb
20210124094634 20 330 4.0 12.0 0.00 0.00 0.00 71 1031.0
20210124093109 20 35 1.0 9.0 0.00 0.00 0.00 71 1030.7
20210124091555 21 321 3.0 10.0 0.00 0.00 0.00 71 1030.7
20210124090136 21 336 2.0 10.0 0.00 0.00 0.00 73 1030.6
20210124084608 22 328 3.0 7.0 0.00 0.00 0.00 77 1030.5
20210124083203 22 338 2.0 11.0 0.00 0.00 0.00 77 1030.6
20210124081713 22 323 4.0 11.0 0.00 0.00 0.00 77 1030.5
20210124080110 22 304 6.0 11.0 0.00 0.00 0.00 77 1030.5
20210124074715 22 317 2.0 6.0 0.00 0.00 0.00 78 1030.6
20210124073048 22 348 3.0 8.0 0.00 0.00 0.00 78 1030.5
20210124071635 22 320 3.0 9.0 0.00 0.00 0.00 78 1030.5
20210124070155 22 293 3.0 8.0 0.00 0.00 0.00 78 1030.4
20210124064556 22 324 5.0 11.0 0.00 0.00 0.00 77 1030.4
20210124063043 22 285 7.0 12.0 0.00 0.00 0.00 77 1030.3
20210124061606 22 329 5.0 12.0 0.00 0.00 0.00 77 1030.4
20210124060117 22 315 3.0 10.0 0.00 0.00 0.00 77 1030.5
20210124054549 22 280 5.0 10.0 0.00 0.00 0.00 77 1030.6
20210124053029 22 296 3.0 13.0 0.00 0.00 0.00 77 1030.7
20210124051649 22 261 5.0 10.0 0.00 0.00 0.00 77 1030.9
20210124050028 22 312 3.0 11.0 0.00 0.00 0.00 77 1030.9
20210124044528 22 319 3.0 12.0 0.00 0.00 0.00 77 1030.9
20210124043100 22 333 5.0 14.0 0.00 0.00 0.00 77 1031.0
20210124041618 22 314 3.0 12.0 0.00 0.00 0.00 77 1031.1
20210124040033 22 296 7.0 13.0 0.00 0.00 0.00 77 1031.0
20210124034533 22 309 1.0 9.0 0.00 0.00 0.00 77 1031.1
20210124033028 22 276 5.0 11.0 0.00 0.00 0.00 77 1031.0
20210124031542 22 287 3.0 9.0 0.00 0.00 0.00 77 1030.9
20210124030030 22 296 2.0 7.0 0.00 0.00 0.00 77 1030.9
20210124024605 22 298 2.0 8.0 0.00 0.00 0.00 76 1030.8
20210124023021 22 321 3.0 13.0 0.00 0.00 0.00 76 1030.8
20210124021537 22 306 5.0 13.0 0.00 0.00 0.00 76 1030.9
20210124020102 22 312 3.0 12.0 0.00 0.00 0.00 76 1030.9
20210124014525 22 311 3.0 14.0 0.00 0.00 0.00 77 1030.9
20210124013042 22 292 3.0 15.0 0.00 0.00 0.00 77 1030.8
20210124011609 22 338 6.0 12.0 0.00 0.00 0.00 77 1030.8
20210124010024 22 319 5.0 14.0 0.00 0.00 0.00 78 1031.0
20210124004526 22 296 4.0 9.0 0.00 0.00 0.00 78 1030.9
20210124003028 22 332 5.0 13.0 0.00 0.00 0.00 78 1030.9
20210124001524 22 288 7.0 15.0 0.00 0.00 0.00 75 1031.0
20210124000050 22 301 7.0 16.0 0.00 0.00 0.00 73 1031.0
20210123234529 22 296 5.0 17.0 0.00 0.00 0.00 71 1030.9
20210123233028 22 265 9.0 18.0 0.00 0.00 0.00 71 1030.6
20210123231524 22 314 8.0 13.0 0.00 0.00 0.00 70 1030.6
20210123230042 22 287 8.0 16.0 0.00 0.00 0.00 70 1030.6
20210123224522 22 261 5.0 14.0 0.00 0.00 0.00 70 1030.2
20210123223021 22 305 6.0 13.0 0.00 0.00 0.00 69 1030.1
20210123221521 22 286 8.0 16.0 0.00 0.00 0.00 69 1029.9
20210123220020 22 247 10.0 22.0 0.00 0.00 0.00 68 1029.7
20210123214756 23 243 4.0 16.0 0.00 0.00 0.00 69 1029.6
20210123213142 23 270 5.0 15.0 0.00 0.00 0.00 67 1029.2
20210123211648 23 302 3.0 14.0 0.00 0.00 0.00 67 1029.0
20210123210127 23 276 7.0 18.0 0.00 0.00 0.00 67 1029.0
20210123204638 23 277 7.0 13.0 0.00 0.00 0.00 68 1029.0
20210123203206 23 302 9.0 18.0 0.00 0.00 0.00 69 1029.0
20210123201709 23 272 4.0 12.0 0.00 0.00 0.00 67 1028.9
20210123200146 23 294 7.0 17.0 0.00 0.00 0.00 67 1028.6
20210123194700 23 290 10.0 23.0 0.00 0.00 0.00 67 1028.6
20210123193126 23 304 4.0 13.0 0.00 0.00 0.00 68 1028.5
20210123191727 23 286 7.0 16.0 0.00 0.00 0.00 68 1028.5
20210123190131 23 292 4.0 11.0 0.00 0.00 0.00 69 1028.5
20210123184632 22 328 8.0 19.0 0.00 0.00 0.00 68 1028.4
20210123183139 22 259 6.0 17.0 0.00 0.00 0.00 69 1028.3
20210123181709 22 275 6.0 18.0 0.00 0.00 0.00 71 1028.4
20210123180203 22 298 11.0 19.0 0.00 0.00 0.00 70 1028.5
20210123174717 22 298 6.0 13.0 0.00 0.00 0.00 70 1028.5
20210123173113 22 281 5.0 21.0 0.00 0.00 0.00 70 1028.5
20210123171643 23 295 6.0 17.0 0.00 0.00 0.00 69 1028.6
20210123170126 22 299 8.0 23.0 0.00 0.00 0.00 68 1028.4
20210123164630 22 267 7.0 19.0 0.00 0.00 0.00 70 1028.4
20210123163113 22 273 9.0 16.0 0.00 0.00 0.00 70 1028.5
20210123161603 22 346 6.0 13.0 0.00 0.00 0.00 69 1028.7
20210123160256 22 298 6.0 17.0 0.00 0.00 0.00 69 1028.8
20210123154611 21 306 6.0 16.0 0.00 0.00 0.00 69 1028.8
20210123153024 21 253 8.0 24.0 0.00 0.00 0.00 69 1028.6
20210123151555 21 309 8.0 16.0 0.00 0.00 0.00 69 1028.3
20210123150022 21 294 10.0 19.0 0.00 0.00 0.00 68 1028.1
20210123144524 21 300 5.0 20.0 0.00 0.00 0.00 70 1027.8
20210123143030 21 309 7.0 14.0 0.00 0.00 0.00 70 1027.6
20210123141521 21 313 7.0 15.0 0.00 0.00 0.00 69 1027.2
20210123140018 21 295 7.0 21.0 0.00 0.00 0.00 70 1027.1
20210123134810 20 276 7.0 20.0 0.00 0.00 0.00 71 1026.9
20210123133143 19 263 7.0 15.0 0.00 0.00 0.00 72 1026.7
20210123131634 19 252 7.0 15.0 0.00 0.00 0.00 73 1026.3
20210123130153 19 232 4.0 14.0 0.00 0.00 0.00 73 1026.1
20210123124655 20 262 9.0 15.0 0.00 0.00 0.00 72 1025.8
20210123123237 20 286 5.0 16.0 0.00 0.00 0.00 72 1025.7
20210123121604 20 292 7.0 14.0 0.00 0.00 0.00 71 1025.3
20210123120126 20 275 10.0 19.0 0.00 0.00 0.00 70 1025.2
20210123114540 20 286 7.0 20.0 0.00 0.00 0.00 70 1024.9
20210123113113 20 298 5.0 14.0 0.00 0.00 0.00 69 1024.6
20210123111543 20 275 7.0 16.0 0.00 0.00 0.00 68 1024.3
20210123110057 20 317 7.0 17.0 0.00 0.00 0.00 67 1023.9
20210123104536 20 250 6.0 11.0 0.00 0.00 0.00 67 1023.6
20210123103048 20 311 3.0 17.0 0.00 0.00 0.00 67 1023.4
20210123101604 20 291 8.0 18.0 0.00 0.00 0.00 65 1023.1
20210123100101 21 273 5.0 21.0 0.00 0.00 0.00 64 1023.0